createdAt,value
2023-03-10T00:01:24.477Z,96957.88
2023-03-10T00:03:52.968Z,96958.75
2023-03-10T00:06:22.716Z,96963.06
2023-03-10T00:08:50.272Z,96953.84
2023-03-10T00:11:18.317Z,96967.34
2023-03-10T00:13:45.763Z,96974.16
2023-03-10T00:16:23.488Z,96973.19
2023-03-10T00:18:50.508Z,96961.13
2023-03-10T00:21:26.782Z,96962.00
2023-03-10T00:23:54.088Z,96963.75
2023-03-10T00:26:22.115Z,96961.03
2023-03-10T00:28:50.740Z,96977.91
2023-03-10T00:31:21.626Z,96957.59
2023-03-10T00:33:48.842Z,96970.25
2023-03-10T00:36:28.332Z,96967.66
2023-03-10T00:38:57.477Z,96969.34
2023-03-10T00:41:28.142Z,96955.75
2023-03-10T00:43:54.925Z,96964.28
2023-03-10T00:46:23.701Z,96963.38
2023-03-10T00:48:50.901Z,96968.38
2023-03-10T00:51:20.285Z,96970.09
2023-03-10T00:53:47.566Z,96961.59
2023-03-10T00:56:18.919Z,96964.13
2023-03-10T00:58:47.843Z,96967.38
2023-03-10T01:01:20.479Z,96963.16
2023-03-10T01:03:47.889Z,96970.69
2023-03-10T01:06:14.649Z,96971.50
2023-03-10T01:08:41.520Z,96962.16
2023-03-10T01:11:08.641Z,96972.38
2023-03-10T01:13:35.701Z,96963.78
2023-03-10T01:16:02.464Z,96973.13
2023-03-10T01:18:29.225Z,96956.09
2023-03-10T01:20:55.922Z,96951.00
2023-03-10T01:23:25.537Z,96941.03
2023-03-10T01:25:52.798Z,96944.53
2023-03-10T01:28:21.081Z,96950.47
2023-03-10T01:30:48.781Z,96942.00
2023-03-10T01:33:17.515Z,96947.16
2023-03-10T01:35:45.025Z,96945.59
2023-03-10T01:38:12.521Z,96929.66
2023-03-10T01:40:39.814Z,96935.81
2023-03-10T01:43:19.725Z,96942.75
2023-03-10T01:45:46.423Z,96943.91
2023-03-10T01:48:17.160Z,96952.50
2023-03-10T01:50:48.878Z,96956.88
2023-03-10T01:53:19.806Z,96956.03
2023-03-10T01:55:54.530Z,96949.31
2023-03-10T01:58:26.351Z,96979.13
2023-03-10T02:00:54.533Z,96953.06
2023-03-10T02:03:31.784Z,96938.91
2023-03-10T02:06:06.039Z,96952.56
2023-03-10T02:08:45.334Z,96950.91
2023-03-10T02:11:14.077Z,96949.34
2023-03-10T02:13:40.860Z,96950.25
2023-03-10T02:16:08.058Z,96955.25
2023-03-10T02:18:34.902Z,96946.00
2023-03-10T02:21:23.267Z,96957.88
2023-03-10T02:24:13.878Z,96952.19
2023-03-10T02:27:04.506Z,96954.00
2023-03-10T02:29:52.313Z,96943.09
2023-03-10T02:32:24.595Z,96936.47
2023-03-10T02:34:51.557Z,96935.56
2023-03-10T02:37:29.960Z,96932.00
2023-03-10T02:39:57.697Z,96926.91
2023-03-10T02:42:32.701Z,96918.50
2023-03-10T02:44:59.851Z,96923.78
2023-03-10T02:47:26.653Z,96916.94
2023-03-10T02:49:53.354Z,96913.56
2023-03-10T02:52:35.015Z,96913.63
2023-03-10T02:55:01.809Z,96918.03
2023-03-10T02:57:28.537Z,96918.88
2023-03-10T02:59:55.289Z,96915.75
2023-03-10T03:02:22.065Z,96917.53
2023-03-10T03:04:48.829Z,96916.81
2023-03-10T03:07:15.599Z,96922.84
2023-03-10T03:09:42.357Z,96925.53
2023-03-10T03:12:09.725Z,96918.91
2023-03-10T03:14:36.514Z,96913.09
2023-03-10T03:17:03.407Z,96920.88
2023-03-10T03:19:30.229Z,96920.03
2023-03-10T03:21:56.944Z,96909.09
2023-03-10T03:24:23.797Z,96907.34
2023-03-10T03:26:50.591Z,96904.81
2023-03-10T03:29:17.640Z,96889.59
2023-03-10T03:31:44.463Z,96877.16
2023-03-10T03:34:12.425Z,96881.47
2023-03-10T03:36:39.267Z,96870.75
2023-03-10T03:39:07.080Z,96870.16
2023-03-10T03:41:34.418Z,96873.66
2023-03-10T03:44:01.346Z,96863.03
2023-03-10T03:46:28.194Z,96875.03
2023-03-10T03:48:55.013Z,96869.34
2023-03-10T03:51:21.806Z,96877.19
2023-03-10T03:53:48.648Z,96859.63
2023-03-10T03:56:15.823Z,96851.34
2023-03-10T03:58:43.775Z,96858.19
2023-03-10T04:01:10.534Z,96859.97
2023-03-10T04:03:37.281Z,96849.00
2023-03-10T04:06:06.781Z,96853.25
2023-03-10T04:08:33.525Z,96856.69
2023-03-10T04:11:00.240Z,96852.50
2023-03-10T04:13:26.966Z,96861.75
2023-03-10T04:16:00.521Z,96858.41
2023-03-10T04:18:27.336Z,96854.22
2023-03-10T04:20:54.119Z,96852.56
2023-03-10T04:23:20.877Z,96855.88
2023-03-10T04:25:47.595Z,96849.88
2023-03-10T04:28:14.737Z,96843.06
2023-03-10T04:30:44.454Z,96836.22
2023-03-10T04:33:12.458Z,96847.09
2023-03-10T04:35:47.352Z,96841.22
2023-03-10T04:38:14.595Z,96844.53
2023-03-10T04:40:41.343Z,96838.59
2023-03-10T04:43:08.135Z,96843.66
2023-03-10T04:45:34.878Z,96836.06
2023-03-10T04:48:01.765Z,96835.31
2023-03-10T04:50:28.724Z,96830.22
2023-03-10T04:52:55.714Z,96838.69
2023-03-10T04:55:22.513Z,96839.41
2023-03-10T04:57:49.384Z,96830.09
2023-03-10T05:00:17.115Z,96827.50
2023-03-10T05:02:44.044Z,96823.22
2023-03-10T05:05:11.570Z,96827.31
2023-03-10T05:07:38.861Z,96828.16
2023-03-10T05:10:06.993Z,96823.72
2023-03-10T05:12:34.162Z,96822.84
2023-03-10T05:15:00.969Z,96826.22
2023-03-10T05:17:28.461Z,96815.91
2023-03-10T05:35:07.519Z,96828.97
2023-03-10T05:44:19.159Z,96831.19
2023-03-10T05:49:48.099Z,96840.25
2023-03-10T05:52:14.896Z,96838.44
2023-03-10T05:54:42.548Z,96829.13
2023-03-10T05:57:09.505Z,96827.41
2023-03-10T05:59:36.264Z,96835.00
2023-03-10T06:02:03.090Z,96827.41
2023-03-10T06:04:33.113Z,96823.22
2023-03-10T06:07:00.957Z,96820.69
2023-03-10T06:09:30.343Z,96827.31
2023-03-10T06:11:58.534Z,96828.97
2023-03-10T06:14:26.210Z,96828.00
2023-03-10T06:16:56.577Z,96839.78
2023-03-10T06:19:24.836Z,96833.81
2023-03-10T06:21:51.536Z,96845.44
2023-03-10T06:24:18.396Z,96838.72
2023-03-10T06:26:45.224Z,96838.56
2023-03-10T06:29:12.257Z,96838.56
2023-03-10T06:31:42.348Z,96839.41
2023-03-10T06:34:16.442Z,96825.75
2023-03-10T06:36:45.815Z,96831.63
2023-03-10T06:39:13.328Z,96829.00
2023-03-10T06:41:42.040Z,96828.88
2023-03-10T06:44:08.791Z,96822.00
2023-03-10T06:46:35.623Z,96827.06
2023-03-10T06:49:02.847Z,96815.16
2023-03-10T06:51:29.594Z,96821.00
2023-03-10T06:53:57.565Z,96815.94
2023-03-10T06:56:24.375Z,96829.50
2023-03-10T06:58:51.865Z,96841.38
2023-03-10T07:01:37.015Z,96838.03
2023-03-10T07:04:24.023Z,96839.75
2023-03-10T07:07:21.457Z,96829.50
2023-03-10T07:09:49.427Z,96835.50
2023-03-10T07:12:33.495Z,96836.22
2023-03-10T07:31:14.047Z,96845.00
2023-03-10T07:33:41.399Z,96845.84
2023-03-10T07:36:12.160Z,96844.00
2023-03-10T07:38:39.561Z,96848.88
2023-03-10T07:41:09.149Z,96848.28
2023-03-10T07:43:36.310Z,96844.13
2023-03-10T07:46:08.476Z,96842.97
2023-03-10T07:48:38.038Z,96854.56
2023-03-10T07:51:06.187Z,96858.53
2023-03-10T07:53:33.734Z,96860.59
2023-03-10T07:56:04.762Z,96858.19
2023-03-10T07:58:31.869Z,96861.19
2023-03-10T08:00:59.598Z,96861.53
2023-03-10T08:03:28.036Z,96853.50
2023-03-10T08:05:55.811Z,96858.13
2023-03-10T08:08:23.245Z,96855.91
2023-03-10T08:10:50.190Z,96864.47
2023-03-10T08:13:17.126Z,96870.25
2023-03-10T08:15:44.449Z,96876.47
2023-03-10T08:18:11.665Z,96876.75
2023-03-10T08:20:40.559Z,96875.22
2023-03-10T08:23:07.496Z,96874.41
2023-03-10T08:25:34.233Z,96871.75
2023-03-10T08:28:00.972Z,96879.03
2023-03-10T08:30:27.694Z,96871.81
2023-03-10T08:32:57.711Z,96866.00
2023-03-10T08:35:24.625Z,96866.81
2023-03-10T08:37:55.250Z,96876.47
2023-03-10T08:40:22.263Z,96875.38
2023-03-10T08:42:48.949Z,96878.94
2023-03-10T08:45:15.806Z,96869.25
2023-03-10T08:47:42.639Z,96868.88
2023-03-10T08:50:12.433Z,96868.59
2023-03-10T08:52:40.174Z,96861.31
2023-03-10T08:55:08.449Z,96862.53
2023-03-10T08:57:35.193Z,96862.22
2023-03-10T09:00:03.754Z,96861.50
2023-03-10T09:02:30.500Z,96861.81
2023-03-10T09:04:57.220Z,96879.84
2023-03-10T09:07:23.974Z,96881.75
2023-03-10T09:09:50.919Z,96878.91
2023-03-10T09:12:17.640Z,96879.78
2023-03-10T09:14:44.334Z,96868.38
2023-03-10T09:17:12.117Z,96880.88
2023-03-10T09:19:38.986Z,96874.47
2023-03-10T09:22:05.864Z,96869.56
2023-03-10T09:24:33.006Z,96870.44
2023-03-10T09:26:59.837Z,96866.69
2023-03-10T09:29:42.148Z,96854.97
2023-03-10T09:32:10.394Z,96869.28
2023-03-10T09:34:37.223Z,96870.19
2023-03-10T09:37:06.355Z,96868.19
2023-03-10T09:39:34.866Z,96861.38
2023-03-10T09:42:38.443Z,96863.47
2023-03-10T09:45:36.759Z,96872.34
2023-03-10T09:48:36.779Z,96869.59
2023-03-10T09:51:17.023Z,96875.66
2023-03-10T09:53:58.829Z,96871.44
2023-03-10T09:56:32.575Z,96873.75
2023-03-10T09:59:09.668Z,96870.75
2023-03-10T10:01:37.706Z,96872.13
2023-03-10T10:04:39.430Z,96879.50
2023-03-10T10:07:19.589Z,96888.59
2023-03-10T10:10:04.609Z,96882.94
2023-03-10T10:12:32.583Z,96888.41
2023-03-10T10:15:21.226Z,96886.09
2023-03-10T10:20:58.610Z,96889.66
2023-03-10T10:23:43.633Z,96890.72
2023-03-10T10:26:15.145Z,96887.91
2023-03-10T10:28:52.859Z,96887.22
2023-03-10T10:31:23.987Z,96883.16
2023-03-10T10:34:01.057Z,96883.63
2023-03-10T10:36:51.230Z,96895.84
2023-03-10T10:39:42.386Z,96893.88
2023-03-10T10:42:28.195Z,96893.50
2023-03-10T10:44:57.412Z,96896.75
2023-03-10T10:47:37.650Z,96897.44
2023-03-10T10:50:30.419Z,96896.69
2023-03-10T10:53:26.583Z,96896.56
2023-03-10T10:56:13.839Z,96894.31
2023-03-10T10:58:42.861Z,96890.28
2023-03-10T11:01:15.512Z,96900.28
2023-03-10T11:03:44.802Z,96895.94
2023-03-10T11:06:37.731Z,96892.00
2023-03-10T11:09:23.465Z,96869.47
2023-03-10T11:12:21.888Z,96873.09
2023-03-10T11:15:10.532Z,96879.31
2023-03-10T11:17:46.658Z,96886.59
2023-03-10T11:20:55.304Z,96888.38
2023-03-10T11:23:26.978Z,96884.69
2023-03-10T11:26:22.157Z,96891.28
2023-03-10T11:29:36.134Z,96887.84
2023-03-10T11:32:32.375Z,96888.28
2023-03-10T11:35:02.528Z,96881.84
2023-03-10T11:37:47.140Z,96889.41
2023-03-10T11:40:44.758Z,96886.75
2023-03-10T11:43:40.016Z,96882.50
2023-03-10T11:46:33.843Z,96875.06
2023-03-10T11:49:17.566Z,96877.78
2023-03-10T11:51:56.908Z,96855.75
2023-03-10T11:54:36.625Z,96848.94
2023-03-10T11:57:13.158Z,96845.50
2023-03-10T11:59:50.644Z,96849.56
2023-03-10T12:02:36.471Z,96840.28
2023-03-10T12:05:43.630Z,96839.28
2023-03-10T12:08:13.906Z,96838.44
2023-03-10T12:10:42.102Z,96829.91
2023-03-10T12:13:27.803Z,96840.09
2023-03-10T12:16:00.808Z,96838.56
2023-03-10T12:18:28.498Z,96841.94
2023-03-10T12:21:21.481Z,96836.22
2023-03-10T12:23:54.896Z,96833.56
2023-03-10T12:26:39.738Z,96831.00
2023-03-10T12:29:21.770Z,96832.75
2023-03-10T12:31:54.618Z,96833.47
2023-03-10T12:34:29.058Z,96839.28
2023-03-10T12:37:11.407Z,96828.91
2023-03-10T12:39:43.346Z,96827.88
2023-03-10T12:42:33.049Z,96833.78
2023-03-10T12:45:15.118Z,96839.81
2023-03-10T12:47:55.440Z,96829.69
2023-03-10T12:50:52.724Z,96818.06
2023-03-10T12:53:34.317Z,96818.47
2023-03-10T12:56:13.003Z,96815.41
2023-03-10T12:58:50.442Z,96817.41
2023-03-10T13:01:28.948Z,96826.53
2023-03-10T13:03:56.862Z,96850.91
2023-03-10T13:06:35.340Z,96865.75
2023-03-10T13:09:27.234Z,96869.38
2023-03-10T13:12:03.738Z,96871.50
2023-03-10T13:14:40.427Z,96851.38
2023-03-10T13:17:21.525Z,96873.84
2023-03-10T13:20:12.089Z,96870.41
2023-03-10T13:22:39.177Z,96866.84
2023-03-10T13:25:14.780Z,96868.88
2023-03-10T13:27:41.574Z,96875.19
2023-03-10T13:30:21.127Z,96885.66
2023-03-10T13:33:01.329Z,96862.91
2023-03-10T13:35:38.271Z,96895.06
2023-03-10T13:38:21.693Z,96899.22
2023-03-10T13:41:02.051Z,96913.34
2023-03-10T13:43:36.508Z,96909.63
2023-03-10T13:46:10.395Z,96914.44
2023-03-10T13:48:39.911Z,96920.97
2023-03-10T13:51:59.522Z,96944.09
2023-03-10T13:54:31.907Z,96954.94
2023-03-10T13:57:35.505Z,96979.31
2023-03-10T14:00:08.829Z,96982.47
2023-03-10T14:02:40.861Z,96987.91
2023-03-10T14:05:28.734Z,96991.50
2023-03-10T14:08:00.498Z,96993.50
2023-03-10T14:10:27.503Z,97024.94
2023-03-10T14:12:55.054Z,97015.72
2023-03-10T14:15:27.960Z,97031.03
2023-03-10T14:18:06.747Z,97007.56
2023-03-10T14:20:46.425Z,97029.78
2023-03-10T14:23:18.956Z,97026.09
2023-03-10T14:25:47.453Z,97035.06
2023-03-10T14:28:33.320Z,97038.75
2023-03-10T14:31:02.463Z,97035.75
2023-03-10T14:33:29.530Z,97030.94
2023-03-10T14:35:56.370Z,97038.88
2023-03-10T14:38:23.182Z,97030.00
2023-03-10T14:40:54.174Z,97047.34
2023-03-10T14:43:26.243Z,97053.00
2023-03-10T14:45:56.563Z,97056.19
2023-03-10T14:48:26.863Z,97044.03
2023-03-10T14:50:56.815Z,97045.31
2023-03-10T14:53:26.012Z,97054.13
2023-03-10T14:55:57.030Z,97066.16
2023-03-10T14:58:39.968Z,97064.63
2023-03-10T15:01:06.793Z,97057.25
2023-03-10T15:03:33.595Z,97069.09
2023-03-10T15:06:00.318Z,97072.56
2023-03-10T15:08:29.907Z,97060.06
2023-03-10T15:10:57.306Z,97070.25
2023-03-10T15:13:24.997Z,97060.94
2023-03-10T15:15:52.281Z,97067.06
2023-03-10T15:18:23.263Z,97077.34
2023-03-10T15:20:50.490Z,97059.03
2023-03-10T15:23:22.277Z,97072.66
2023-03-10T15:25:49.060Z,97076.34
2023-03-10T15:28:15.962Z,97056.22
2023-03-10T15:30:42.700Z,97052.16
2023-03-10T15:33:10.771Z,97053.28
2023-03-10T15:35:38.768Z,97061.03
2023-03-10T15:38:05.907Z,97066.16
2023-03-10T15:40:34.716Z,97071.22
2023-03-10T15:43:01.533Z,97081.31
2023-03-10T15:45:31.243Z,97080.44
2023-03-10T15:47:58.558Z,97082.19
2023-03-10T15:50:25.847Z,97115.97
2023-03-10T15:52:58.910Z,97120.28
2023-03-10T15:55:28.088Z,97136.44
2023-03-10T15:57:56.005Z,97139.97
2023-03-10T16:00:26.228Z,97144.34
2023-03-10T16:02:53.757Z,97136.09
2023-03-10T16:05:20.756Z,97159.84
2023-03-10T16:07:48.120Z,97239.22
2023-03-10T16:10:20.053Z,97283.28
2023-03-10T16:12:54.473Z,97324.94
2023-03-10T16:15:21.247Z,97358.28
2023-03-10T16:17:47.972Z,97390.78
2023-03-10T16:20:16.819Z,97403.03
2023-03-10T16:22:43.659Z,97441.38
2023-03-10T16:25:21.114Z,97468.00
2023-03-10T16:27:47.977Z,97506.28
2023-03-10T16:30:16.604Z,97523.47
2023-03-10T16:32:50.322Z,97541.50
2023-03-10T16:35:18.250Z,97565.34
2023-03-10T16:37:44.983Z,97615.16
2023-03-10T16:40:12.496Z,97631.38
2023-03-10T16:42:43.120Z,97675.28
2023-03-10T16:45:10.377Z,97687.41
2023-03-10T16:47:37.084Z,97711.97
2023-03-10T16:50:04.095Z,97717.25
2023-03-10T16:52:30.848Z,97728.34
2023-03-10T16:55:01.372Z,97736.94
2023-03-10T16:57:28.202Z,97748.00
2023-03-10T16:59:54.981Z,97773.31
2023-03-10T17:02:21.675Z,97796.91
2023-03-10T17:04:49.040Z,97828.03
2023-03-10T17:07:16.162Z,97855.75
2023-03-10T17:09:42.901Z,97850.84
2023-03-10T17:12:09.704Z,97876.06
2023-03-10T17:14:36.464Z,97871.09
2023-03-10T17:17:04.322Z,97891.22
2023-03-10T17:19:32.794Z,97896.31
2023-03-10T17:21:59.601Z,97898.03
2023-03-10T17:24:27.336Z,97918.97
2023-03-10T17:26:54.061Z,97925.72
2023-03-10T17:29:21.000Z,97948.28
2023-03-10T17:31:51.478Z,97955.00
2023-03-10T17:34:19.385Z,97976.75
2023-03-10T17:36:50.697Z,97986.81
2023-03-10T17:39:21.497Z,98006.91
2023-03-10T17:41:49.032Z,97992.69
2023-03-10T17:44:16.938Z,98019.47
2023-03-10T17:46:44.008Z,98038.69
2023-03-10T17:49:15.322Z,98039.50
2023-03-10T17:51:44.271Z,98054.56
2023-03-10T17:54:22.201Z,98062.97
2023-03-10T17:56:49.666Z,98067.16
2023-03-10T17:59:17.042Z,98098.91
2023-03-10T18:01:45.732Z,98090.56
2023-03-10T18:04:13.260Z,98089.72
2023-03-10T18:06:40.149Z,98110.66
2023-03-10T18:09:11.729Z,98125.69
2023-03-10T18:11:38.831Z,98117.34
2023-03-10T18:14:05.988Z,98139.06
2023-03-10T18:16:40.203Z,98136.59
2023-03-10T18:19:10.453Z,98154.13
2023-03-10T18:21:38.461Z,98162.50
2023-03-10T18:24:05.370Z,98180.06
2023-03-10T18:26:32.197Z,98171.72
2023-03-10T18:29:00.014Z,98193.44
2023-03-10T18:31:31.300Z,98205.16
2023-03-10T18:33:59.296Z,98213.53
2023-03-10T18:36:26.700Z,98223.53
2023-03-10T18:38:53.969Z,98232.75
2023-03-10T18:41:25.261Z,98220.19
2023-03-10T18:43:53.232Z,98229.44
2023-03-10T18:46:20.619Z,98238.63
2023-03-10T18:48:47.861Z,98234.44
2023-03-10T18:51:14.821Z,98251.16
2023-03-10T18:53:41.672Z,98252.81
2023-03-10T18:56:10.096Z,98268.75
2023-03-10T18:58:37.026Z,98276.25
2023-03-10T19:01:09.622Z,98265.38
2023-03-10T19:03:36.392Z,98283.78
2023-03-10T19:06:03.269Z,98268.72
2023-03-10T19:08:30.101Z,98281.28
2023-03-10T19:14:48.926Z,98289.63
2023-03-10T19:17:58.635Z,98298.81
2023-03-10T19:21:46.018Z,98298.81
2023-03-10T19:24:15.688Z,98298.84
2023-03-10T19:27:04.814Z,98310.53
2023-03-10T19:43:46.301Z,98364.88
2023-03-10T19:46:39.617Z,98364.88
2023-03-10T19:49:28.141Z,98366.56
2023-03-10T19:52:01.367Z,98364.88
2023-03-10T19:55:07.723Z,98372.41
2023-03-10T20:03:41.870Z,98398.31
2023-03-10T20:06:29.647Z,98403.31
2023-03-10T20:10:02.918Z,98404.16
2023-03-10T20:13:29.085Z,98435.09
2023-03-10T20:21:15.411Z,98430.88
2023-03-10T20:23:47.622Z,98438.38
2023-03-10T20:26:15.886Z,98451.75
2023-03-10T20:28:43.597Z,98460.09
2023-03-10T20:31:19.083Z,98465.13
2023-03-10T20:33:46.870Z,98471.00
2023-03-10T20:36:15.698Z,98477.69
2023-03-10T20:38:44.658Z,98487.72
2023-03-10T20:41:17.408Z,98499.38
2023-03-10T20:43:45.027Z,98498.56
2023-03-10T20:46:13.029Z,98500.38
2023-03-10T20:48:40.008Z,98514.59
2023-03-10T20:51:07.059Z,98516.22
2023-03-10T20:53:40.228Z,98521.22
2023-03-10T20:56:11.413Z,98522.88
2023-03-10T20:58:38.442Z,98527.03
2023-03-10T21:01:05.384Z,98549.59
2023-03-10T21:03:32.306Z,98539.53
2023-03-10T21:05:59.194Z,98543.69
2023-03-10T21:08:26.020Z,98558.75
2023-03-10T21:10:52.860Z,98548.72
2023-03-10T21:13:19.586Z,98539.50
2023-03-10T21:15:46.376Z,98545.38
2023-03-10T21:18:13.075Z,98557.06
2023-03-10T21:20:41.044Z,98549.53
2023-03-10T21:23:07.844Z,98547.88
2023-03-10T21:25:34.605Z,98558.75
2023-03-10T21:28:01.865Z,98565.44
2023-03-10T21:30:31.968Z,98567.94
2023-03-10T21:32:59.653Z,98564.63
2023-03-10T21:35:30.283Z,98580.47
2023-03-10T21:37:59.197Z,98582.97
2023-03-10T21:40:26.620Z,98601.38
2023-03-10T21:42:53.397Z,98615.59
2023-03-10T21:45:23.619Z,98623.09
2023-03-10T21:47:50.551Z,98625.63
2023-03-10T21:50:18.388Z,98625.63
2023-03-10T21:52:46.151Z,98621.41
2023-03-10T21:55:23.905Z,98628.94
2023-03-10T21:57:52.058Z,98628.13
2023-03-10T22:00:22.938Z,98632.28
2023-03-10T22:02:51.920Z,98645.66
2023-03-10T22:05:20.295Z,98645.63
2023-03-10T22:07:47.297Z,98649.81
2023-03-10T22:10:16.346Z,98651.50
2023-03-10T22:12:43.206Z,98642.28
2023-03-10T22:15:18.478Z,98665.72
2023-03-10T22:17:45.831Z,98659.84
2023-03-10T22:20:18.492Z,98662.34
2023-03-10T22:22:45.536Z,98667.38
2023-03-10T22:25:13.116Z,98678.22
2023-03-10T22:27:40.535Z,98682.41
2023-03-10T22:30:08.622Z,98681.59
2023-03-10T22:32:35.599Z,98679.06
2023-03-10T22:35:02.630Z,98682.41
2023-03-10T22:37:29.356Z,98680.78
2023-03-10T22:39:56.124Z,98684.09
2023-03-10T22:42:22.873Z,98683.28
2023-03-10T22:44:49.622Z,98680.78
2023-03-10T22:47:18.362Z,98689.13
2023-03-10T22:49:46.286Z,98693.31
2023-03-10T22:52:13.161Z,98701.66
2023-03-10T22:54:39.943Z,98701.66
2023-03-10T22:57:06.750Z,98704.16
2023-03-10T22:59:33.471Z,98702.53
2023-03-10T23:02:00.238Z,98704.22
2023-03-10T23:04:27.002Z,98701.69
2023-03-10T23:06:53.825Z,98696.69
2023-03-10T23:09:20.626Z,98695.00
2023-03-10T23:11:48.880Z,98702.53
2023-03-10T23:14:15.667Z,98708.38
2023-03-10T23:16:42.482Z,98719.22
2023-03-10T23:19:09.335Z,98708.34
2023-03-10T23:21:36.181Z,98710.88
2023-03-10T23:24:03.106Z,98717.53
2023-03-10T23:26:31.240Z,98731.72
2023-03-10T23:28:58.110Z,98736.75
2023-03-10T23:31:25.231Z,98734.22
2023-03-10T23:33:52.202Z,98743.41
2023-03-10T23:36:19.004Z,98745.09
2023-03-10T23:38:45.714Z,98749.25
2023-03-10T23:41:13.069Z,98749.28
2023-03-10T23:43:39.885Z,98759.28
2023-03-10T23:46:08.743Z,98767.66
2023-03-10T23:48:36.180Z,98768.53
2023-03-10T23:51:03.658Z,98767.66
2023-03-10T23:53:30.950Z,98771.03
2023-03-10T23:55:59.941Z,98770.22
2023-03-10T23:58:27.817Z,98780.25
